Necedah, Wisconsin
Current Conditions -  °F | °C
As of 9:58 PM on Thursday 20 Nov 2014 (Local Time) from KVOK Reporting Station
Clear Clear  
Wind Chill:   Ceiling: Unl
Heat Index:   Visibility: 10mi
Dew Point: -1°   Wind: 1mph
Humidity: 92%   Direction: 270°W
Pressure: 30.25"   Gusts: NA
Location:  44.03°N, 90.07°W
Report Text: KVOK 210358Z AUTO 27001KT 10SM CLR M17/M18 A3025 RMK AO2 SLP269 T11751185
Loading
Personal Weather Stations






























Interactive Weather Map New forecast layout! Learn more

10-Day Weather Forecast

Advertisements
Track Severe Weather on mobile